Time;durP1;ratioP1;P1;durP2;ratioP2;P2;SDS_P1;SDS_P2;PMS_P1;PMS_P2;Temp;Humidity;BMP_temperature;BMP_pressure;BME280_temperature;BME280_humidity;BME280_pressure;Samples;Min_cycle;Max_cycle;Signal;HPM_P1;HPM_P2
2021/05/08 00:02:27;;;;;;;7.33;6.63;;;1.90;99.90;;;;;;5051669;28;20228;-82
2021/05/08 00:04:56;;;;;;;7.47;6.17;;;2.00;99.90;;;;;;5046889;28;20199;-85
2021/05/08 00:07:24;;;;;;;7.63;6.80;;;2.10;99.90;;;;;;5043722;28;20226;-82
2021/05/08 00:09:52;;;;;;;7.20;6.50;;;2.30;99.90;;;;;;5040343;28;20210;-80
2021/05/08 00:12:19;;;;;;;7.53;6.67;;;2.30;99.90;;;;;;5042860;28;20202;-85
2021/05/08 00:14:47;;;;;;;8.60;7.13;;;2.40;99.90;;;;;;5045919;28;20226;-86
2021/05/08 00:17:16;;;;;;;8.20;7.17;;;2.50;99.90;;;;;;5048514;28;20457;-82
2021/05/08 00:19:44;;;;;;;9.13;8.17;;;2.60;99.90;;;;;;5046703;28;20194;-80
2021/05/08 00:22:11;;;;;;;13.83;11.97;;;2.60;99.90;;;;;;5048681;28;20280;-82
2021/05/08 00:24:39;;;;;;;15.90;12.13;;;2.80;99.90;;;;;;5054257;28;20191;-81
2021/05/08 00:27:07;;;;;;;17.07;13.60;;;3.00;99.90;;;;;;5047042;28;20225;-85
2021/05/08 00:29:35;;;;;;;16.90;12.27;;;3.10;99.90;;;;;;5044004;28;20209;-81
2021/05/08 00:32:02;;;;;;;21.13;16.47;;;3.30;99.90;;;;;;5044349;28;20264;-84
2021/05/08 00:34:31;;;;;;;22.67;16.13;;;3.40;99.90;;;;;;5041269;28;20221;-83
2021/05/08 00:36:59;;;;;;;16.97;13.00;;;3.60;99.90;;;;;;5041776;28;20226;-83
2021/05/08 00:39:27;;;;;;;12.07;9.37;;;3.60;99.90;;;;;;5038479;28;20492;-83
2021/05/08 00:41:55;;;;;;;11.50;8.97;;;3.60;99.90;;;;;;5045179;28;20209;-84
2021/05/08 00:44:23;;;;;;;8.87;7.70;;;3.70;99.90;;;;;;5052502;28;20587;-84
2021/05/08 00:46:52;;;;;;;8.63;7.23;;;3.70;99.90;;;;;;5050867;28;20234;-82
2021/05/08 00:49:21;;;;;;;7.60;6.80;;;3.70;99.90;;;;;;5050918;28;20212;-80
2021/05/08 00:51:50;;;;;;;8.43;7.37;;;3.80;99.90;;;;;;5053775;28;20199;-81
2021/05/08 00:54:18;;;;;;;7.77;6.93;;;3.80;99.90;;;;;;5035702;28;20290;-81
2021/05/08 00:56:45;;;;;;;8.20;7.10;;;3.80;99.90;;;;;;5038461;28;20207;-79
2021/05/08 00:59:13;;;;;;;7.40;6.70;;;3.80;99.90;;;;;;5035358;28;20631;-81
2021/05/08 01:01:43;;;;;;;7.33;6.43;;;4.00;99.90;;;;;;5036160;28;20203;-83
2021/05/08 01:04:11;;;;;;;6.97;6.37;;;3.90;99.90;;;;;;5031631;28;20205;-84
2021/05/08 01:06:39;;;;;;;7.87;7.00;;;3.90;99.90;;;;;;5037617;28;20292;-83
2021/05/08 01:09:08;;;;;;;7.07;6.17;;;3.90;99.90;;;;;;5029409;28;20225;-81
2021/05/08 01:11:37;;;;;;;8.07;7.27;;;4.00;99.90;;;;;;5033022;28;20204;-81
2021/05/08 01:14:05;;;;;;;7.43;6.73;;;4.00;99.90;;;;;;5027945;28;20248;-81
2021/05/08 01:16:32;;;;;;;8.27;7.47;;;4.00;99.90;;;;;;5042001;28;20203;-82
2021/05/08 01:19:04;;;;;;;9.23;7.13;;;4.10;99.90;;;;;;5038933;28;20196;-83
2021/05/08 01:21:33;;;;;;;8.60;7.50;;;4.00;99.90;;;;;;5044501;28;20479;-83
2021/05/08 01:24:04;;;;;;;8.77;7.37;;;4.10;99.90;;;;;;5039218;28;20212;-83
2021/05/08 01:26:33;;;;;;;9.77;7.37;;;4.20;99.90;;;;;;5032738;28;20638;-84
2021/05/08 01:29:01;;;;;;;8.53;7.60;;;4.20;99.90;;;;;;5034384;28;20201;-85
2021/05/08 01:31:29;;;;;;;9.50;7.90;;;4.20;99.90;;;;;;5042607;28;20304;-80
2021/05/08 01:33:57;;;;;;;10.97;8.20;;;4.20;99.90;;;;;;5032541;28;20235;-81
2021/05/08 01:36:27;;;;;;;12.80;8.97;;;4.30;99.90;;;;;;5036463;28;20198;-83
2021/05/08 01:38:55;;;;;;;13.20;10.67;;;4.30;99.90;;;;;;5041011;28;20271;-84
2021/05/08 01:41:23;;;;;;;12.93;10.83;;;4.30;99.90;;;;;;5037425;28;20204;-80
2021/05/08 01:43:51;;;;;;;14.87;11.67;;;4.40;99.90;;;;;;5044642;28;20207;-80
2021/05/08 01:46:20;;;;;;;16.03;12.87;;;4.40;99.90;;;;;;5037744;28;20270;-79
2021/05/08 01:48:49;;;;;;;16.97;13.77;;;4.40;99.90;;;;;;5042497;28;20195;-80
2021/05/08 01:51:17;;;;;;;16.50;13.37;;;4.40;99.90;;;;;;5042188;28;20205;-82
2021/05/08 01:53:46;;;;;;;17.20;13.93;;;4.40;99.90;;;;;;5048369;28;20250;-82
2021/05/08 01:56:15;;;;;;;18.17;15.07;;;4.50;99.90;;;;;;5042023;28;20935;-81
2021/05/08 01:58:44;;;;;;;20.23;15.50;;;4.40;99.90;;;;;;5041329;28;20192;-81
2021/05/08 02:01:12;;;;;;;22.60;16.53;;;4.50;99.90;;;;;;5037924;28;20422;-82
2021/05/08 02:03:42;;;;;;;22.33;17.40;;;4.40;99.90;;;;;;5042852;28;20229;-81
2021/05/08 02:06:10;;;;;;;27.53;19.73;;;4.50;99.90;;;;;;5043945;28;20700;-81
2021/05/08 02:08:39;;;;;;;24.43;19.33;;;4.50;99.90;;;;;;5028748;28;20208;-80
2021/05/08 02:11:06;;;;;;;23.73;18.87;;;4.60;99.90;;;;;;5041281;28;20215;-81
2021/05/08 02:13:37;;;;;;;27.73;20.37;;;4.60;99.90;;;;;;5037273;28;20474;-81
2021/05/08 02:16:05;;;;;;;24.93;19.53;;;4.60;99.90;;;;;;5038090;28;20268;-82
2021/05/08 02:18:33;;;;;;;27.77;20.63;;;4.60;99.90;;;;;;5020979;28;20639;-81
2021/05/08 02:21:03;;;;;;;27.03;19.87;;;4.70;99.90;;;;;;5035223;28;20202;-81
2021/05/08 02:23:31;;;;;;;27.70;20.00;;;4.70;99.90;;;;;;5037082;28;20211;-83
2021/05/08 02:25:58;;;;;;;25.30;19.47;;;4.80;99.90;;;;;;5030006;28;20184;-81
2021/05/08 02:28:26;;;;;;;27.63;20.20;;;4.70;99.90;;;;;;5031827;28;20212;-82
2021/05/08 02:30:55;;;;;;;27.33;19.77;;;4.70;99.90;;;;;;5031757;28;20217;-80
2021/05/08 02:33:24;;;;;;;26.43;19.90;;;4.70;99.90;;;;;;5038915;28;20227;-81
2021/05/08 02:35:51;;;;;;;26.20;19.13;;;4.70;99.90;;;;;;5048027;28;20552;-80
2021/05/08 02:38:19;;;;;;;27.77;19.67;;;4.70;99.90;;;;;;5040858;28;20203;-85
2021/05/08 02:40:47;;;;;;;26.93;20.43;;;4.70;99.90;;;;;;5032255;28;20286;-83
2021/05/08 02:43:15;;;;;;;33.03;21.30;;;4.70;99.90;;;;;;5032345;28;20219;-82
2021/05/08 02:45:42;;;;;;;26.70;20.93;;;4.80;99.90;;;;;;5033908;28;20204;-83
2021/05/08 02:48:11;;;;;;;28.73;20.77;;;4.80;99.90;;;;;;5031429;28;20216;-80
2021/05/08 02:50:39;;;;;;;27.63;20.17;;;4.90;99.90;;;;;;5030796;28;20621;-85
2021/05/08 02:53:06;;;;;;;27.13;19.20;;;4.90;99.90;;;;;;5033721;28;20674;-82
2021/05/08 02:55:34;;;;;;;27.10;19.57;;;4.90;99.90;;;;;;5027867;28;20263;-84
2021/05/08 02:58:03;;;;;;;29.33;19.80;;;4.90;99.90;;;;;;5027494;28;20205;-82
2021/05/08 03:00:31;;;;;;;28.27;20.47;;;4.90;99.90;;;;;;5032945;28;20200;-81
2021/05/08 03:02:59;;;;;;;28.53;19.97;;;4.90;99.90;;;;;;5028941;28;20203;-85
2021/05/08 03:05:27;;;;;;;27.57;19.03;;;4.90;99.90;;;;;;5030978;28;20294;-82
2021/05/08 03:07:55;;;;;;;27.20;18.53;;;4.90;99.90;;;;;;5031682;28;20204;-82
2021/05/08 03:10:22;;;;;;;28.87;19.93;;;4.90;99.90;;;;;;5035411;28;20644;-82
2021/05/08 03:12:51;;;;;;;26.60;20.03;;;4.90;99.90;;;;;;5036434;28;20199;-80
2021/05/08 03:15:21;;;;;;;23.53;19.53;;;4.90;99.90;;;;;;5032773;28;20237;-81
2021/05/08 03:17:49;;;;;;;30.60;21.03;;;4.90;99.90;;;;;;5027176;28;20666;-81
2021/05/08 03:20:17;;;;;;;30.10;21.60;;;4.90;99.90;;;;;;5032263;28;20495;-81
2021/05/08 03:22:45;;;;;;;28.77;22.73;;;4.90;99.90;;;;;;5039270;28;20208;-83
2021/05/08 03:25:13;;;;;;;31.07;22.27;;;5.00;99.90;;;;;;5033845;28;20202;-80
2021/05/08 03:27:40;;;;;;;28.97;22.07;;;5.10;99.90;;;;;;5043207;28;20198;-80
2021/05/08 03:30:09;;;;;;;28.83;21.57;;;5.10;99.90;;;;;;5041734;28;20315;-81
2021/05/08 03:32:37;;;;;;;26.03;19.80;;;5.30;99.90;;;;;;5032499;28;20728;-81
2021/05/08 03:35:06;;;;;;;25.10;19.30;;;5.30;99.90;;;;;;5039732;28;20230;-81
2021/05/08 03:37:34;;;;;;;20.90;17.50;;;5.30;99.90;;;;;;5037302;28;20664;-85
2021/05/08 03:40:02;;;;;;;19.50;15.77;;;5.30;99.90;;;;;;5038588;28;20375;-83
2021/05/08 03:42:30;;;;;;;18.30;15.63;;;5.20;99.90;;;;;;5050955;28;20190;-80
2021/05/08 03:44:57;;;;;;;19.63;16.07;;;5.30;99.90;;;;;;5053990;28;20205;-84
2021/05/08 03:47:25;;;;;;;18.80;15.03;;;5.30;99.90;;;;;;5031119;28;20259;-85
2021/05/08 03:49:55;;;;;;;19.63;16.53;;;5.50;99.90;;;;;;5030423;28;20249;-84
2021/05/08 03:52:23;;;;;;;20.00;16.10;;;5.40;99.90;;;;;;5030669;28;22116;-84
2021/05/08 03:54:51;;;;;;;18.80;15.80;;;5.30;99.90;;;;;;5036918;28;20325;-82
2021/05/08 03:57:22;;;;;;;18.20;16.23;;;5.30;99.90;;;;;;5037086;28;20218;-81
2021/05/08 03:59:50;;;;;;;19.17;16.87;;;5.40;99.90;;;;;;5031330;28;20940;-82
2021/05/08 04:02:18;;;;;;;17.67;15.73;;;5.40;99.90;;;;;;5031960;28;20203;-82
2021/05/08 04:04:47;;;;;;;17.77;15.87;;;5.50;99.90;;;;;;5031430;28;20210;-82
2021/05/08 04:07:15;;;;;;;16.77;14.93;;;5.50;99.90;;;;;;5029061;28;20218;-81
2021/05/08 04:09:43;;;;;;;15.53;13.83;;;5.40;99.90;;;;;;5025564;28;20481;-84
2021/05/08 04:12:10;;;;;;;16.87;14.90;;;5.30;99.90;;;;;;5038709;28;20213;-83
2021/05/08 04:14:39;;;;;;;15.67;13.97;;;5.20;99.90;;;;;;5029982;28;20687;-83
2021/05/08 04:17:07;;;;;;;15.87;14.27;;;5.20;99.90;;;;;;5036136;28;20202;-81
2021/05/08 04:19:35;;;;;;;17.13;14.27;;;5.10;99.90;;;;;;5036095;28;20528;-80
2021/05/08 04:22:03;;;;;;;15.83;13.37;;;5.30;99.90;;;;;;5036538;28;20867;-82
2021/05/08 04:24:32;;;;;;;15.87;12.63;;;5.30;99.90;;;;;;5033825;28;20194;-81
2021/05/08 04:27:00;;;;;;;13.73;12.23;;;5.30;99.90;;;;;;5031669;28;20198;-83
2021/05/08 04:29:28;;;;;;;16.07;13.37;;;5.20;99.90;;;;;;5032113;28;20203;-83
2021/05/08 04:31:57;;;;;;;13.97;12.57;;;5.10;99.90;;;;;;5047587;28;20534;-81
2021/05/08 04:34:25;;;;;;;15.40;13.03;;;5.30;99.90;;;;;;5041521;28;20229;-81
2021/05/08 04:36:52;;;;;;;15.13;13.57;;;5.30;99.90;;;;;;5040599;28;20296;-82
2021/05/08 04:39:20;;;;;;;15.67;13.43;;;5.30;99.90;;;;;;5040332;28;20301;-81
2021/05/08 04:41:48;;;;;;;16.27;14.57;;;5.30;99.90;;;;;;5040098;28;20328;-83
2021/05/08 04:44:16;;;;;;;15.50;13.87;;;5.40;99.90;;;;;;5045301;28;20191;-83
2021/05/08 04:46:44;;;;;;;14.13;12.63;;;5.50;99.90;;;;;;5039081;28;20656;-82
2021/05/08 04:49:13;;;;;;;12.80;11.47;;;5.60;99.90;;;;;;5031408;28;20457;-82
2021/05/08 04:51:41;;;;;;;13.03;10.93;;;5.50;99.90;;;;;;5042663;28;20198;-81
2021/05/08 04:54:09;;;;;;;12.23;10.70;;;5.50;99.90;;;;;;5041730;28;20524;-82
2021/05/08 04:56:37;;;;;;;13.67;10.90;;;5.40;99.90;;;;;;5032201;28;20754;-83
2021/05/08 04:59:05;;;;;;;11.67;10.47;;;5.50;99.90;;;;;;5031285;28;20205;-82
2021/05/08 05:01:38;;;;;;;11.93;10.10;;;5.50;99.90;;;;;;5033493;28;20207;-82
2021/05/08 05:04:06;;;;;;;11.40;10.03;;;5.60;99.90;;;;;;5027904;28;20217;-83
2021/05/08 05:06:34;;;;;;;12.43;11.13;;;5.60;99.90;;;;;;5032358;28;20206;-83
2021/05/08 05:09:03;;;;;;;12.17;10.87;;;5.70;99.90;;;;;;5020626;28;20659;-83
2021/05/08 05:11:31;;;;;;;12.17;10.43;;;5.80;99.90;;;;;;5028781;28;20744;-81
2021/05/08 05:13:59;;;;;;;14.47;11.47;;;5.80;99.90;;;;;;5040934;28;20238;-84
2021/05/08 05:16:26;;;;;;;11.37;9.90;;;5.90;99.90;;;;;;5040858;28;20257;-81
2021/05/08 05:18:54;;;;;;;10.80;9.80;;;5.90;99.90;;;;;;5033120;28;20276;-83
2021/05/08 05:21:22;;;;;;;12.30;11.00;;;5.90;99.90;;;;;;5032073;28;20297;-84
2021/05/08 05:23:51;;;;;;;12.03;10.57;;;6.00;99.90;;;;;;5027830;28;20199;-82
2021/05/08 05:26:19;;;;;;;12.83;11.47;;;5.90;99.90;;;;;;5030176;28;20214;-85
2021/05/08 05:28:46;;;;;;;12.63;11.03;;;6.10;99.90;;;;;;5025327;28;20405;-82
2021/05/08 05:31:18;;;;;;;12.27;11.03;;;6.10;99.90;;;;;;5029410;28;20213;-82
2021/05/08 05:33:45;;;;;;;11.80;10.53;;;6.20;99.90;;;;;;5029003;28;20788;-80
2021/05/08 05:36:13;;;;;;;13.50;11.53;;;6.30;99.90;;;;;;5024999;28;20477;-83
2021/05/08 05:38:42;;;;;;;14.67;12.07;;;6.20;99.90;;;;;;5024804;28;20207;-83
2021/05/08 05:41:11;;;;;;;12.60;11.30;;;6.30;99.90;;;;;;5042889;28;20200;-84
2021/05/08 05:43:38;;;;;;;13.97;12.13;;;6.30;99.90;;;;;;5031598;28;20563;-82
2021/05/08 05:46:06;;;;;;;13.03;11.50;;;6.30;99.90;;;;;;5031140;28;20207;-82
2021/05/08 05:48:34;;;;;;;12.50;11.20;;;6.30;99.90;;;;;;5024665;28;20633;-84
2021/05/08 05:51:01;;;;;;;13.97;11.70;;;6.40;99.90;;;;;;5047425;28;20197;-82
2021/05/08 05:53:29;;;;;;;13.40;11.77;;;6.40;99.90;;;;;;5051515;28;20241;-84
2021/05/08 05:55:57;;;;;;;12.40;10.83;;;6.40;99.90;;;;;;5048484;28;20216;-84
2021/05/08 05:58:25;;;;;;;13.70;11.97;;;6.40;99.90;;;;;;5030127;28;20197;-81
2021/05/08 06:00:53;;;;;;;14.07;11.93;;;6.40;99.90;;;;;;5036818;28;20213;-81
2021/05/08 06:03:20;;;;;;;13.33;11.83;;;6.50;99.90;;;;;;5040163;28;20852;-84
2021/05/08 06:05:48;;;;;;;12.17;10.83;;;6.30;99.20;;;;;;5049681;28;20198;-82
2021/05/08 06:08:15;;;;;;;13.57;11.07;;;6.30;99.90;;;;;;5039369;28;20219;-81
2021/05/08 06:10:43;;;;;;;12.33;10.87;;;6.30;99.90;;;;;;5024011;28;20201;-85
2021/05/08 06:13:11;;;;;;;11.93;10.63;;;6.40;99.20;;;;;;5018561;28;20303;-84
2021/05/08 06:15:39;;;;;;;11.90;10.67;;;6.40;98.50;;;;;;5038745;28;20227;-82
2021/05/08 06:18:07;;;;;;;11.20;9.97;;;6.60;99.10;;;;;;5033033;28;20265;-84
2021/05/08 06:20:35;;;;;;;11.07;9.97;;;6.60;97.30;;;;;;5027191;28;20213;-84
2021/05/08 06:23:03;;;;;;;11.43;10.33;;;6.70;97.20;;;;;;5030965;28;20210;-82
2021/05/08 06:25:31;;;;;;;11.53;10.33;;;6.90;98.70;;;;;;5031954;28;20203;-81
2021/05/08 06:28:05;;;;;;;10.37;9.43;;;7.10;98.30;;;;;;5024689;28;20219;-81
2021/05/08 06:30:32;;;;;;;10.50;9.40;;;7.30;95.20;;;;;;5038656;28;20502;-83
2021/05/08 06:33:03;;;;;;;9.97;9.07;;;7.40;93.40;;;;;;5038689;28;20207;-83
2021/05/08 06:35:31;;;;;;;9.57;8.70;;;7.50;93.40;;;;;;5029275;28;20228;-80
2021/05/08 06:37:59;;;;;;;9.30;8.40;;;7.50;93.30;;;;;;5029939;28;20273;-83
2021/05/08 06:40:28;;;;;;;9.00;8.10;;;7.50;92.30;;;;;;5019017;28;20232;-81
2021/05/08 06:42:55;;;;;;;8.87;7.97;;;7.40;91.80;;;;;;5029963;28;21447;-82
2021/05/08 06:45:23;;;;;;;8.70;7.80;;;7.30;91.70;;;;;;5027155;28;20233;-83
2021/05/08 06:47:58;;;;;;;9.00;8.10;;;7.30;93.00;;;;;;5024953;28;20215;-81
2021/05/08 06:50:27;;;;;;;9.27;8.17;;;7.40;92.80;;;;;;5024324;28;20207;-81
2021/05/08 06:52:55;;;;;;;11.93;8.33;;;7.50;93.40;;;;;;5026928;28;20210;-81
2021/05/08 06:55:22;;;;;;;9.13;8.27;;;7.50;91.80;;;;;;5017808;28;20259;-81
2021/05/08 06:57:51;;;;;;;9.37;8.47;;;7.50;91.40;;;;;;5021731;28;20239;-83
2021/05/08 07:00:19;;;;;;;10.13;9.03;;;7.60;92.80;;;;;;5040248;28;20196;-80
2021/05/08 07:02:46;;;;;;;9.93;9.10;;;7.70;93.80;;;;;;5039065;28;20204;-81
2021/05/08 07:05:14;;;;;;;9.20;8.30;;;8.00;93.20;;;;;;5037201;28;20200;-82
2021/05/08 07:07:42;;;;;;;9.57;8.57;;;8.20;92.30;;;;;;5036988;28;20195;-83
2021/05/08 07:10:10;;;;;;;9.40;8.50;;;8.50;90.80;;;;;;5030722;28;20469;-82
2021/05/08 07:12:39;;;;;;;9.00;8.10;;;8.80;91.10;;;;;;5028723;28;20220;-82
2021/05/08 07:15:07;;;;;;;8.53;7.70;;;9.00;89.80;;;;;;5031974;28;20716;-83
2021/05/08 07:17:35;;;;;;;8.80;7.90;;;9.00;89.50;;;;;;5038882;28;20571;-81
2021/05/08 07:20:04;;;;;;;7.67;7.03;;;8.90;89.30;;;;;;5042611;28;20675;-82
2021/05/08 07:22:31;;;;;;;7.20;6.60;;;8.90;88.30;;;;;;5037058;28;20218;-81
2021/05/08 07:25:00;;;;;;;8.30;7.50;;;9.00;88.20;;;;;;5033885;28;20194;-82
2021/05/08 07:27:27;;;;;;;8.43;7.70;;;9.10;89.20;;;;;;5017549;28;20211;-82
2021/05/08 07:29:55;;;;;;;7.50;6.67;;;9.40;89.00;;;;;;5026167;28;20892;-82
2021/05/08 07:32:23;;;;;;;7.60;6.93;;;9.50;87.30;;;;;;5019937;28;20213;-82
2021/05/08 07:34:52;;;;;;;8.40;7.60;;;9.70;86.80;;;;;;5026300;28;20234;-82
2021/05/08 07:37:20;;;;;;;7.57;6.87;;;9.70;86.50;;;;;;5026127;28;20202;-82
2021/05/08 07:39:48;;;;;;;7.10;6.50;;;9.90;85.80;;;;;;5019075;28;20219;-82
2021/05/08 07:42:17;;;;;;;8.00;7.23;;;9.80;84.80;;;;;;5032386;28;20191;-82
2021/05/08 07:44:44;;;;;;;6.70;6.10;;;9.70;86.30;;;;;;5027408;28;20233;-81
2021/05/08 07:47:13;;;;;;;7.47;6.87;;;9.70;84.90;;;;;;5023861;28;20423;-81
2021/05/08 07:49:41;;;;;;;7.50;6.30;;;9.50;85.60;;;;;;5026652;28;20363;-81
2021/05/08 07:52:08;;;;;;;7.33;6.07;;;9.30;86.40;;;;;;5024425;28;20277;-82
2021/05/08 07:54:36;;;;;;;6.73;6.07;;;9.10;87.60;;;;;;5026292;28;20219;-81
2021/05/08 07:57:04;;;;;;;6.20;5.60;;;9.30;87.30;;;;;;5018683;28;20203;-83
2021/05/08 07:59:33;;;;;;;7.20;6.30;;;9.50;86.70;;;;;;5018200;28;20233;-83
2021/05/08 08:02:00;;;;;;;6.13;5.57;;;9.90;87.00;;;;;;5022807;28;23255;-83
2021/05/08 08:04:28;;;;;;;6.13;5.53;;;10.00;85.20;;;;;;5024366;28;20294;-83
2021/05/08 08:06:56;;;;;;;5.30;4.80;;;10.10;85.60;;;;;;5027173;28;20221;-82
2021/05/08 08:09:23;;;;;;;8.43;5.27;;;10.20;84.80;;;;;;5017246;28;20482;-82
2021/05/08 08:11:50;;;;;;;5.30;4.80;;;10.30;83.90;;;;;;5019368;28;20589;-83
2021/05/08 08:14:19;;;;;;;5.83;4.33;;;10.40;84.30;;;;;;5032503;28;20219;-83
2021/05/08 08:16:48;;;;;;;6.03;4.47;;;10.40;83.50;;;;;;5027976;28;20200;-82
2021/05/08 08:19:15;;;;;;;6.70;4.90;;;10.20;83.30;;;;;;5026428;28;20218;-83
2021/05/08 08:21:43;;;;;;;5.53;4.70;;;10.00;84.20;;;;;;5018715;28;20211;-80
2021/05/08 08:24:10;;;;;;;6.00;5.17;;;10.30;83.80;;;;;;5022243;28;20211;-82
2021/05/08 08:26:38;;;;;;;6.37;4.93;;;10.40;83.50;;;;;;5030160;28;20218;-81
2021/05/08 08:29:06;;;;;;;5.23;4.73;;;10.60;84.60;;;;;;5048634;28;20399;-81
2021/05/08 08:31:33;;;;;;;5.17;4.50;;;10.80;83.20;;;;;;5030317;28;20206;-80
2021/05/08 08:34:02;;;;;;;5.37;4.40;;;10.90;83.20;;;;;;5025269;28;20665;-82
2021/05/08 08:36:30;;;;;;;4.20;3.90;;;10.90;83.00;;;;;;5024245;28;20212;-82
2021/05/08 08:38:57;;;;;;;5.40;4.40;;;10.90;81.90;;;;;;5002312;28;685205;-84
2021/05/08 08:41:25;;;;;;;7.47;4.30;;;10.80;82.30;;;;;;5021536;28;20229;-83
2021/05/08 08:43:53;;;;;;;5.33;4.80;;;10.80;81.30;;;;;;5028673;28;20657;-82
2021/05/08 08:46:20;;;;;;;5.37;4.17;;;10.70;81.70;;;;;;5025910;28;20280;-84
2021/05/08 08:48:50;;;;;;;5.67;4.40;;;10.50;81.60;;;;;;5020676;28;20210;-84
2021/05/08 08:51:18;;;;;;;5.50;4.33;;;10.90;82.40;;;;;;5032297;28;20240;-84
2021/05/08 08:53:49;;;;;;;4.73;4.00;;;11.50;82.30;;;;;;5035374;28;20551;-81
2021/05/08 08:56:19;;;;;;;4.93;4.20;;;11.50;80.10;;;;;;5034083;28;20249;-84
2021/05/08 08:58:54;;;;;;;4.73;4.10;;;11.40;81.10;;;;;;5029784;28;20821;-81
2021/05/08 09:01:22;;;;;;;4.57;4.17;;;11.50;80.80;;;;;;5030214;28;20676;-84
2021/05/08 09:03:50;;;;;;;4.87;3.80;;;11.70;80.50;;;;;;5031256;28;20733;-82
2021/05/08 09:06:20;;;;;;;4.20;3.80;;;11.40;79.80;;;;;;5028948;28;20198;-80
2021/05/08 09:08:52;;;;;;;3.93;3.53;;;10.90;79.60;;;;;;5034336;28;20714;-84
2021/05/08 09:11:22;;;;;;;4.97;3.53;;;10.80;80.40;;;;;;5040430;28;20218;-84
2021/05/08 09:14:11;;;;;;;4.23;3.83;;;10.70;80.60;;;;;;5038574;28;20763;-84
2021/05/08 09:16:39;;;;;;;5.23;3.37;;;10.90;81.10;;;;;;5031752;28;20867;-83
2021/05/08 09:19:19;;;;;;;4.03;3.47;;;11.20;80.90;;;;;;5035331;28;20198;-83
2021/05/08 09:21:47;;;;;;;3.70;3.40;;;11.40;79.60;;;;;;5026114;28;20210;-85
2021/05/08 09:24:15;;;;;;;4.00;3.60;;;11.20;79.10;;;;;;5036293;28;20690;-82
2021/05/08 09:26:48;;;;;;;5.07;3.70;;;11.30;80.00;;;;;;5034595;28;20267;-80
2021/05/08 09:29:23;;;;;;;4.33;3.90;;;11.50;79.40;;;;;;5020687;28;20265;-83
2021/05/08 09:31:54;;;;;;;4.87;3.50;;;11.40;79.10;;;;;;5025624;28;20551;-83
2021/05/08 09:34:23;;;;;;;4.63;4.13;;;11.20;78.80;;;;;;5028065;28;20203;-81
2021/05/08 09:36:53;;;;;;;5.37;4.87;;;10.90;79.40;;;;;;5027769;28;20334;-82
2021/05/08 09:39:28;;;;;;;4.47;4.07;;;11.10;80.80;;;;;;5046933;28;20288;-81
2021/05/08 09:41:55;;;;;;;5.30;4.20;;;11.30;79.40;;;;;;5044872;28;20284;-82
2021/05/08 09:44:23;;;;;;;6.27;4.20;;;11.30;79.20;;;;;;5042399;28;20203;-81
2021/05/08 09:46:52;;;;;;;5.80;4.67;;;11.10;79.20;;;;;;5036101;28;20203;-82
2021/05/08 09:49:21;;;;;;;6.20;4.00;;;11.00;80.00;;;;;;5031420;28;20668;-83
2021/05/08 09:51:58;;;;;;;5.17;4.17;;;11.10;79.70;;;;;;5029733;28;20201;-82
2021/05/08 09:54:27;;;;;;;5.90;3.67;;;11.30;79.60;;;;;;5030169;28;20724;-82
2021/05/08 09:56:56;;;;;;;4.30;3.77;;;11.40;78.80;;;;;;5034389;28;20243;-81
2021/05/08 09:59:25;;;;;;;4.90;3.70;;;11.60;79.40;;;;;;5026692;28;20214;-86
2021/05/08 10:02:13;;;;;;;4.97;3.60;;;11.90;79.50;;;;;;5036886;28;20531;-84
2021/05/08 10:04:59;;;;;;;5.50;3.40;;;12.10;78.00;;;;;;5026172;28;20211;-83
2021/05/08 10:07:28;;;;;;;3.70;3.20;;;12.00;78.10;;;;;;5021374;28;20213;-82
2021/05/08 10:09:59;;;;;;;3.40;2.50;;;11.70;77.70;;;;;;5021527;28;20257;-83
2021/05/08 10:12:27;;;;;;;3.10;2.90;;;11.20;77.80;;;;;;5026318;28;20639;-79
2021/05/08 10:14:57;;;;;;;3.87;3.23;;;10.90;78.00;;;;;;5027545;28;20238;-83
2021/05/08 10:17:26;;;;;;;4.97;4.47;;;10.90;79.60;;;;;;5023432;28;20230;-80
2021/05/08 10:20:02;;;;;;;5.57;4.70;;;10.60;81.10;;;;;;5021412;28;20958;-82
2021/05/08 10:22:33;;;;;;;5.30;4.57;;;9.90;84.60;;;;;;5026506;28;20202;-81
2021/05/08 10:25:03;;;;;;;4.23;3.87;;;9.50;85.80;;;;;;5031926;28;20205;-82
2021/05/08 10:27:32;;;;;;;5.43;4.30;;;9.40;87.10;;;;;;5044411;28;20202;-83
2021/05/08 10:30:00;;;;;;;6.93;5.97;;;9.40;88.60;;;;;;5040889;28;20468;-85
2021/05/08 10:32:28;;;;;;;5.40;4.90;;;9.30;90.10;;;;;;5048092;28;20195;-83
2021/05/08 10:34:58;;;;;;;6.40;4.93;;;9.40;90.80;;;;;;5047682;28;20226;-85
2021/05/08 10:37:27;;;;;;;5.57;5.07;;;9.30;89.70;;;;;;5045865;28;20260;-81
2021/05/08 10:40:00;;;;;;;5.67;4.70;;;9.60;90.40;;;;;;5046869;28;20194;-81
2021/05/08 10:42:36;;;;;;;8.00;5.00;;;9.90;86.20;;;;;;5042483;28;20476;-82
2021/05/08 10:45:06;;;;;;;5.00;4.50;;;10.20;87.50;;;;;;5039240;28;20205;-83
2021/05/08 10:48:09;;;;;;;6.83;5.50;;;10.50;86.20;;;;;;5034160;28;20224;-80
2021/05/08 10:50:47;;;;;;;6.37;4.53;;;10.60;84.40;;;;;;5046676;28;20207;-81
2021/05/08 10:53:17;;;;;;;5.90;4.00;;;10.60;83.40;;;;;;5041644;28;20209;-82
2021/05/08 10:55:51;;;;;;;4.27;3.87;;;10.30;82.50;;;;;;5045912;28;20238;-83
2021/05/08 10:58:35;;;;;;;8.17;4.50;;;10.10;83.40;;;;;;5044143;28;20205;-83
2021/05/08 11:01:12;;;;;;;6.73;4.50;;;10.10;83.50;;;;;;5047149;28;20191;-81
2021/05/08 11:04:02;;;;;;;4.57;3.10;;;10.10;83.50;;;;;;5036559;28;20218;-82
2021/05/08 11:06:30;;;;;;;3.37;3.03;;;10.20;81.90;;;;;;5023984;28;20198;-83
2021/05/08 11:08:58;;;;;;;4.60;3.03;;;10.30;81.10;;;;;;5023046;28;20234;-83
2021/05/08 11:11:45;;;;;;;3.67;2.60;;;10.70;81.00;;;;;;5022930;28;20209;-81
2021/05/08 11:14:13;;;;;;;4.47;2.40;;;11.00;81.30;;;;;;5030364;28;20198;-81
2021/05/08 11:16:57;;;;;;;3.97;2.40;;;11.10;80.20;;;;;;5031707;28;20238;-83
2021/05/08 11:19:25;;;;;;;4.40;2.27;;;10.90;80.00;;;;;;5030415;28;20453;-81
2021/05/08 11:22:15;;;;;;;2.57;2.23;;;10.70;78.60;;;;;;5035341;28;20270;-81
2021/05/08 11:24:44;;;;;;;2.73;2.33;;;10.40;79.10;;;;;;5023318;28;20434;-82
2021/05/08 11:27:27;;;;;;;2.73;2.30;;;10.60;79.60;;;;;;5023963;28;20208;-82
2021/05/08 11:30:06;;;;;;;2.90;2.50;;;10.80;79.40;;;;;;5030571;28;20240;-82
2021/05/08 11:32:45;;;;;;;3.17;2.70;;;11.00;79.60;;;;;;5028384;28;20202;-82
2021/05/08 11:35:26;;;;;;;4.07;3.00;;;11.20;79.50;;;;;;5033737;28;20222;-82
2021/05/08 11:37:53;;;;;;;5.00;3.13;;;11.20;79.30;;;;;;5025305;28;20740;-81
2021/05/08 11:40:32;;;;;;;3.27;2.67;;;11.30;79.40;;;;;;5025581;28;20227;-85
2021/05/08 11:43:00;;;;;;;4.73;2.70;;;11.10;79.40;;;;;;5020654;28;20206;-85
2021/05/08 11:45:39;;;;;;;3.33;3.03;;;11.10;79.80;;;;;;5021183;28;20203;-86
2021/05/08 11:48:08;;;;;;;5.83;3.00;;;11.10;80.50;;;;;;5018213;28;20240;-83
2021/05/08 11:50:35;;;;;;;5.37;3.37;;;10.90;79.80;;;;;;5034875;28;20202;-82
2021/05/08 11:53:03;;;;;;;5.50;3.40;;;10.80;80.70;;;;;;5043656;28;20202;-81
2021/05/08 11:55:31;;;;;;;5.67;3.20;;;10.80;80.10;;;;;;5039226;28;20312;-84
2021/05/08 11:58:01;;;;;;;3.17;2.87;;;10.90;80.10;;;;;;5047304;28;20194;-82
2021/05/08 12:00:31;;;;;;;5.90;3.07;;;11.10;78.60;;;;;;5035306;28;20201;-82
2021/05/08 12:03:10;;;;;;;2.37;2.17;;;11.20;78.10;;;;;;5043228;28;20211;-82
2021/05/08 12:05:40;;;;;;;3.50;2.47;;;11.50;78.20;;;;;;5037663;28;20202;-82
2021/05/08 12:08:08;;;;;;;4.50;2.97;;;11.80;76.70;;;;;;5039923;28;20214;-83
2021/05/08 12:10:38;;;;;;;3.73;2.97;;;12.00;76.90;;;;;;5042860;28;20472;-81
2021/05/08 12:13:07;;;;;;;4.30;2.83;;;12.30;77.30;;;;;;5038581;28;20211;-81
2021/05/08 12:15:37;;;;;;;4.33;3.17;;;12.50;78.40;;;;;;5032852;28;20670;-83
2021/05/08 12:18:06;;;;;;;5.60;3.37;;;12.50;77.40;;;;;;5026807;28;20308;-84
2021/05/08 12:20:37;;;;;;;4.00;3.00;;;12.20;77.00;;;;;;5023769;28;20244;-81
2021/05/08 12:23:11;;;;;;;4.03;2.93;;;12.10;76.50;;;;;;5030314;28;20211;-82
2021/05/08 12:25:40;;;;;;;5.03;3.27;;;12.20;77.10;;;;;;5026629;28;20219;-77
2021/05/08 12:28:16;;;;;;;3.73;2.67;;;12.60;77.20;;;;;;5040140;28;20203;-81
2021/05/08 12:30:45;;;;;;;4.40;2.93;;;12.80;75.70;;;;;;5040506;28;20205;-82
2021/05/08 12:33:16;;;;;;;3.73;2.77;;;12.90;75.60;;;;;;5028161;28;20800;-83
2021/05/08 12:35:47;;;;;;;2.40;2.20;;;13.20;75.00;;;;;;5024893;28;20694;-82
2021/05/08 12:38:26;;;;;;;2.93;2.50;;;13.30;73.40;;;;;;5025073;28;20245;-81
2021/05/08 12:40:53;;;;;;;2.73;2.27;;;13.40;71.30;;;;;;5028556;28;20564;-81
2021/05/08 12:43:25;;;;;;;3.50;2.50;;;13.30;72.20;;;;;;5030681;28;20215;-83
2021/05/08 12:46:03;;;;;;;4.80;2.60;;;13.20;71.60;;;;;;5030316;28;20272;-81
2021/05/08 12:48:34;;;;;;;3.93;3.10;;;12.80;71.70;;;;;;5029913;28;20209;-83
2021/05/08 12:51:01;;;;;;;3.17;2.87;;;12.70;72.10;;;;;;5033567;28;20207;-82
2021/05/08 12:53:29;;;;;;;3.47;3.03;;;12.80;72.50;;;;;;5031452;28;20725;-81
2021/05/08 12:56:01;;;;;;;4.03;2.97;;;12.60;72.30;;;;;;5031339;28;20727;-83
2021/05/08 12:58:36;;;;;;;5.30;3.00;;;12.70;72.70;;;;;;5026352;28;20568;-82